createdAt,value
2023-04-14T00:05:36.350Z,91342.97
2023-04-14T00:15:43.800Z,91217.38
2023-04-14T00:25:53.378Z,91129.16
2023-04-14T00:35:59.863Z,91039.97
2023-04-14T00:46:06.381Z,91032.75
2023-04-14T00:56:13.051Z,91079.41
2023-04-14T01:06:20.104Z,91042.03
2023-04-14T01:16:31.899Z,90962.69
2023-04-14T01:26:39.747Z,90920.53
2023-04-14T01:36:49.649Z,90874.62
2023-04-14T01:46:59.918Z,90864.19
2023-04-14T01:57:07.617Z,90835.94
2023-04-14T02:07:14.176Z,91342.66
2023-04-14T02:17:21.254Z,90933.19
2023-04-14T02:27:33.367Z,90906.56
2023-04-14T02:37:43.220Z,90835.56
2023-04-14T02:47:53.948Z,90742.47
2023-04-14T02:58:01.186Z,90644.94
2023-04-14T03:08:09.702Z,90615.00
2023-04-14T03:18:17.925Z,90621.62
2023-04-14T03:28:27.163Z,90532.59
2023-04-14T03:38:34.778Z,90505.25
2023-04-14T03:48:45.620Z,90481.75
2023-04-14T03:58:53.761Z,90532.53
2023-04-14T04:09:01.165Z,90569.75
2023-04-14T04:19:08.598Z,90603.53
2023-04-14T04:29:15.507Z,90654.38
2023-04-14T04:39:22.148Z,90630.44
2023-04-14T04:49:28.725Z,90655.53
2023-04-14T04:59:37.896Z,90507.88
2023-04-14T05:09:44.612Z,90433.56
2023-04-14T05:19:51.185Z,90387.38
2023-04-14T05:29:57.863Z,90420.84
2023-04-14T05:40:05.129Z,90386.31
2023-04-14T05:50:12.024Z,90309.41
2023-04-14T06:00:18.709Z,90281.53
2023-04-14T06:10:25.195Z,90306.03
2023-04-14T06:20:33.166Z,90365.94
2023-04-14T06:30:39.722Z,90387.44
2023-04-14T06:40:46.807Z,90733.88
2023-04-14T06:50:55.317Z,91086.56
2023-04-14T07:01:03.293Z,91663.81
2023-04-14T07:11:11.937Z,91689.34
2023-04-14T07:21:18.776Z,92243.47
2023-04-14T07:31:25.365Z,92592.50
2023-04-14T07:41:32.340Z,92965.03
2023-04-14T07:51:39.340Z,93412.94
2023-04-14T08:01:45.948Z,93561.03
2023-04-14T08:11:52.826Z,93794.63
2023-04-14T08:21:59.423Z,93978.81
2023-04-14T08:32:06.836Z,94227.41
2023-04-14T08:42:17.347Z,94471.00
2023-04-14T08:52:25.752Z,94660.47
2023-04-14T09:02:34.938Z,94845.06
2023-04-14T09:12:42.280Z,94984.38
2023-04-14T09:22:49.166Z,95121.38
2023-04-14T09:32:55.748Z,95180.28
2023-04-14T09:43:00.779Z,95200.22
2023-04-14T09:53:09.536Z,95260.03
2023-04-14T10:03:16.102Z,95286.09
2023-04-14T10:13:22.868Z,95316.75
2023-04-14T10:23:30.046Z,95269.59
2023-04-14T10:33:39.732Z,95262.28
2023-04-14T10:43:46.230Z,95313.87
2023-04-14T10:53:56.991Z,95401.59
2023-04-14T11:04:23.717Z,95464.84
2023-04-14T11:14:32.836Z,95518.13
2023-04-14T11:24:39.867Z,95543.66
2023-04-14T11:34:46.357Z,95591.91
2023-04-14T11:44:59.510Z,95620.09
2023-04-14T11:55:07.297Z,95638.94
2023-04-14T12:05:15.214Z,95739.25
2023-04-14T12:15:22.711Z,95861.53
2023-04-14T12:25:34.218Z,95952.31
2023-04-14T12:35:42.118Z,96093.84
2023-04-14T12:45:50.272Z,96105.28
2023-04-14T12:56:10.909Z,96110.03
2023-04-14T13:06:19.251Z,96102.66
2023-04-14T13:16:26.680Z,96104.97
2023-04-14T13:26:33.854Z,96132.13
2023-04-14T13:36:40.504Z,96121.31
2023-04-14T13:46:47.145Z,96162.16
2023-04-14T13:56:53.669Z,96151.63
2023-04-14T14:07:01.209Z,96125.53
2023-04-14T14:17:08.252Z,96088.75
2023-04-14T14:27:14.848Z,96070.91
2023-04-14T14:37:22.663Z,96055.91
2023-04-14T14:47:29.551Z,96069.47
2023-04-14T14:57:36.187Z,96046.53
2023-04-14T15:07:43.022Z,96071.16
2023-04-14T15:17:49.887Z,96088.72
2023-04-14T15:27:56.810Z,96080.88
2023-04-14T15:38:04.564Z,96059.72
2023-04-14T15:48:11.063Z,96009.97
2023-04-14T15:58:17.606Z,95993.84
2023-04-14T16:08:24.063Z,96001.97
2023-04-14T16:18:30.620Z,95993.47
2023-04-14T16:28:37.223Z,95997.91
2023-04-14T16:38:43.689Z,95999.28
2023-04-14T16:48:50.502Z,95891.72
2023-04-14T16:58:57.242Z,95706.44
2023-04-14T17:09:03.747Z,95324.56
2023-04-14T17:19:10.294Z,95208.81
2023-04-14T17:29:17.480Z,95236.63
2023-04-14T17:39:27.938Z,95202.00
2023-04-14T17:49:35.475Z,95120.44
2023-04-14T17:59:42.886Z,94988.03
2023-04-14T18:09:49.650Z,94878.59
2023-04-14T18:20:00.075Z,94710.34
2023-04-14T18:30:07.437Z,94559.19
2023-04-14T18:40:13.982Z,94531.06
2023-04-14T18:50:21.681Z,94587.03
2023-04-14T19:00:31.010Z,94635.03
2023-04-14T19:10:38.115Z,94698.50
2023-04-14T19:20:44.562Z,94739.94
2023-04-14T19:30:51.046Z,94764.34
2023-04-14T19:40:58.248Z,94788.78
2023-04-14T19:51:05.453Z,94798.31
2023-04-14T20:01:12.663Z,94802.56
2023-04-14T20:11:20.334Z,94786.38
2023-04-14T20:21:26.887Z,94781.66
2023-04-14T20:31:33.435Z,94787.87
2023-04-14T20:41:40.156Z,94771.94
2023-04-14T20:51:48.161Z,94784.69
2023-04-14T21:01:54.718Z,94779.97
2023-04-14T21:12:15.949Z,94797.72
2023-04-14T21:22:23.800Z,94798.66
2023-04-14T21:32:30.486Z,94810.37
2023-04-14T21:42:37.030Z,94795.28
2023-04-14T21:52:43.564Z,94814.94
2023-04-14T22:02:50.973Z,94817.69
2023-04-14T22:12:57.464Z,94812.97
2023-04-14T22:23:04.277Z,94800.69
2023-04-14T22:33:10.752Z,94787.06
2023-04-14T22:43:17.339Z,94799.09
2023-04-14T22:53:23.884Z,94798.09
2023-04-14T23:03:30.691Z,94800.06
2023-04-14T23:13:37.273Z,94803.59
2023-04-14T23:23:44.459Z,94790.44
2023-04-14T23:33:53.105Z,94748.78
2023-04-14T23:43:59.686Z,94713.75
2023-04-14T23:54:06.213Z,94634.78
